• Join FlightAware (Why Join?)
  • Login
  • US Flag 
01:41PM EDT


 

Airport Tracker/Info


-or-


 

Live Flight TrackerFlight Track Log ✈ WBR2633 ✈ 17-Oct-2013 ✈ KBRL - KSTL

Flight Track Log - Related Links

Times and Time Zones

All times are in EDT time to prevent confusion due to time zone crossing. See the WBR2633 flight status page for this flight to view local times or setup timezone preferences in your user account.

Time Position Orientation Groundspeed Altitude Reporting Facility
EDT Latitude Longitude Course Direction KTS MPH feet Rate Location/Type
11:27AM 40.7150 -91.0989 164° South 139 160 2,500  Level Chicago Center
11:28AM 40.6817 -91.0878 166° South 126 145 3,400 720 Climbing Chicago Center
11:29AM 40.4434 -90.9960 164° South  Level Estimated
11:29AM 40.6481 -91.0778 167° South 123 142 4,100  Level Chicago Center
11:30AM 40.4009 -90.9799 164° South  Level Estimated
11:30AM 40.6036 -91.0617 165° South 132 152 4,900  Level Chicago Center
11:31AM 40.3584 -90.9639 164° South  Level Estimated
11:31AM 40.5622 -91.0467 165° South 144 166 4,900  Level Chicago Center
11:32AM 40.3159 -90.9478 164° South  Level Estimated
11:32AM 40.5194 -91.0294 163° South 153 176 5,000  Level Chicago Center
11:33AM 40.4778 -91.0133 164° South 155 178 5,000  Level Chicago Center
11:34AM 40.4300 -90.9947 163° South 163 188 5,000  Level Chicago Center
11:35AM 40.3897 -90.9789 163° South 163 188 5,000 -60 Level Chicago Center
11:36AM 40.3422 -90.9617 165° South 152 175 4,900 -60 Descending Chicago Center
11:37AM 40.2997 -90.9467 165° South 155 178 4,900  Level Chicago Center
11:38AM 40.2578 -90.9303 163° South 156 180 5,000  Climbing Chicago Center
11:39AM 40.2153 -90.9172 167° South 156 180 5,000  Level Chicago Center
11:40AM 40.1750 -90.9025 164° South 157 181 5,000  Level Chicago Center
11:41AM 40.1328 -90.8853 163° South 157 181 5,000 -60 Level Chicago Center
11:42AM 40.0814 -90.8653 163° South 160 184 4,900 -60 Descending Chicago Center
11:43AM 40.0400 -90.8472 162° South 160 184 4,900  Level Chicago Center
11:44AM 39.9981 -90.8300 163° South 157 181 4,900  Level Chicago Center
11:45AM 39.9544 -90.8147 165° South 162 186 4,900  Level Chicago Center
11:46AM 39.9128 -90.7972 162° South 160 184 4,900  Level Chicago Center
11:48AM 39.8519 -90.7714 162° South 159 183 4,900  Level Kansas City Center
11:49AM 39.8094 -90.7536 162° South 159 183 4,900  Level Kansas City Center
11:50AM 39.7586 -90.7347 164° South 159 183 4,900  Level Kansas City Center
11:51AM 39.7219 -90.7200 163° South 159 183 4,900  Level Kansas City Center
11:52AM 39.6719 -90.6983 162° South 159 183 5,000  Climbing Kansas City Center
11:53AM 39.6294 -90.6792 161° South 160 184 5,000 -60 Level Kansas City Center
11:54AM 39.5864 -90.6633 164° South 162 186 4,900 -60 Descending Kansas City Center
11:55AM 39.5431 -90.6464 163° South 161 185 4,900  Level Kansas City Center
11:56AM 39.5006 -90.6294 163° South 162 186 4,900  Level Kansas City Center
11:57AM 39.4561 -90.6147 166° South 163 188 5,000  Climbing Kansas City Center
11:58AM 39.4128 -90.5700 141° Southeast 167 192 5,000  Level Kansas City Center
11:59AM 39.3767 -90.5314 140° Southeast 171 197 5,000  Level Kansas City Center
12:00PM 39.3397 -90.4961 144° Southeast 166 191 5,100  Climbing Kansas City Center
12:01PM 39.3028 -90.4586 142° Southeast 168 193 5,000 -60 Descending Kansas City Center
12:02PM 39.2569 -90.4156 144° Southeast 169 194 5,000  Level Kansas City Center
12:03PM 39.2192 -90.3794 143° Southeast 169 194 5,000  Level Kansas City Center
12:04PM 39.1825 -90.3425 142° Southeast 169 194 5,000  Level Kansas City Center
12:05PM 39.1439 -90.3072 145° Southeast 168 193 5,000  Level Kansas City Center
12:06PM 39.1053 -90.2717 144° Southeast 169 194 5,000  Level Kansas City Center
12:07PM 39.0678 -90.2364 144° Southeast 169 194 5,100  Climbing Kansas City Center
12:08PM 39.0294 -90.2011 144° Southeast 169 194 5,000 -60 Descending Kansas City Center
12:09PM 38.9842 -90.1592 144° Southeast 168 193 5,000  Level Kansas City Center
12:10PM 38.9439 -90.1269 148° Southeast 169 194 5,000  Level Kansas City Center
12:11PM 38.9036 -90.0992 152° Southeast 166 191 5,100  Climbing Kansas City Center
12:12PM 38.8600 -90.0839 165° South 163 188 5,000 -60 Descending Kansas City Center
12:14PM 38.8181 -90.0906 187° South 160 184 5,000 -300 Level Kansas City Center
12:15PM 38.7781 -90.1044 195° South 153 176 4,500 -720 Descending Kansas City Center
12:16PM 38.7322 -90.1267 201° Southwest 150 173 3,600 -1,020 Descending Kansas City Center
12:17PM 38.7011 -90.1597 220° Southwest 154 177 2,500 -540 Descending Kansas City Center
12:18PM 38.6728 -90.1939 223° Southwest 146 168 2,500 -60 Level Kansas City Center
12:19PM 38.6886 -90.2344 297° West 139 160 2,400 -420 Descending Kansas City Center
12:20PM 38.7075 -90.2764 300° West 136 157 1,700 -720 Descending Kansas City Center
12:21PM 38.7272 -90.3156 303° West 135 155 1,000 -540 Descending Kansas City Center
12:22PM 38.7450 -90.3506 303° West 104 120 600 -420 Descending Kansas City Center